Terminal Aerodrome Forecast
Issued by NWS La Crosse, WI

Home | Current Version | Previous Version | Text Only | Print | Product List | Glossary On
Versions: 1 2 3 4 5 6 7 8 9 10 11 12 13 14 15 16 17 18 19 20 21 22 23 24 25 26 27 28 29 30 31 32 33 34 35 36 37 38 39
000
FTUS43 KARX 261133
TAFRST
TAF
KRST 261133Z 2612/2712 VRB03KT 1/4SM FG OVC002
     FM261330 24005KT 1SM BR OVC004
     FM261500 25005KT 3SM BR OVC009
     FM261700 27006KT P6SM BKN150
     FM270200 23005KT P6SM SCT150
     FM270600 28010KT P6SM SCT150=

USA.gov is the U.S. government's official web portal to all federal, state and local government web resources and services.